createdAt,value
2022-10-15T00:01:33.503Z,72.20
2022-10-15T00:06:34.906Z,72.24
2022-10-15T00:09:04.239Z,72.49
2022-10-15T00:11:32.189Z,72.47
2022-10-15T00:14:00.895Z,72.79
2022-10-15T00:16:29.750Z,72.80
2022-10-15T00:18:59.612Z,72.85
2022-10-15T00:21:28.471Z,72.77
2022-10-15T00:23:56.846Z,72.93
2022-10-15T00:26:27.355Z,72.76
2022-10-15T00:29:02.896Z,72.78
2022-10-15T00:31:31.986Z,73.07
2022-10-15T00:34:02.812Z,73.22
2022-10-15T00:36:34.763Z,73.43
2022-10-15T00:39:05.780Z,73.45
2022-10-15T00:41:42.578Z,73.54
2022-10-15T00:44:25.936Z,73.59
2022-10-15T00:47:16.739Z,73.88
2022-10-15T00:50:12.860Z,73.75
2022-10-15T00:52:59.373Z,74.15
2022-10-15T00:55:36.547Z,74.36
2022-10-15T00:58:28.700Z,74.52
2022-10-15T01:00:57.972Z,74.42
2022-10-15T01:03:25.482Z,74.31
2022-10-15T01:05:53.885Z,74.16
2022-10-15T01:08:21.630Z,74.33
2022-10-15T01:11:22.543Z,74.40
2022-10-15T01:14:09.031Z,74.26
2022-10-15T01:16:55.456Z,74.79
2022-10-15T01:19:47.080Z,75.29
2022-10-15T01:22:47.794Z,75.63
2022-10-15T01:25:45.631Z,75.63
2022-10-15T01:28:39.984Z,75.88
2022-10-15T01:31:56.570Z,76.17
2022-10-15T01:34:55.422Z,76.02
2022-10-15T01:38:02.914Z,76.23
2022-10-15T01:41:29.602Z,76.32
2022-10-15T01:44:28.492Z,76.42
2022-10-15T01:47:21.766Z,76.43
2022-10-15T01:49:52.825Z,76.23
2022-10-15T01:55:01.279Z,76.05
2022-10-15T01:57:32.571Z,76.13
2022-10-15T02:00:02.908Z,76.22
2022-10-15T02:02:40.192Z,76.45
2022-10-15T02:05:19.742Z,76.16
2022-10-15T02:08:01.378Z,76.20
2022-10-15T02:11:14.398Z,76.78
2022-10-15T02:13:54.916Z,76.23
2022-10-15T02:16:38.277Z,76.52
2022-10-15T02:19:47.249Z,76.60
2022-10-15T02:22:21.906Z,77.02
2022-10-15T02:24:57.450Z,77.29
2022-10-15T02:27:28.294Z,77.13
2022-10-15T02:29:57.703Z,77.39
2022-10-15T02:32:27.421Z,77.54
2022-10-15T02:34:56.807Z,77.62
2022-10-15T02:37:28.458Z,77.77
2022-10-15T02:39:56.020Z,77.64
2022-10-15T02:42:25.822Z,77.50
2022-10-15T02:44:54.101Z,77.72
2022-10-15T02:47:22.017Z,77.68
2022-10-15T02:49:49.803Z,77.51
2022-10-15T02:52:18.223Z,77.70
2022-10-15T02:54:46.636Z,77.71
2022-10-15T02:57:14.426Z,77.62
2022-10-15T02:59:43.674Z,77.48
2022-10-15T03:02:15.268Z,77.94
2022-10-15T03:04:47.110Z,77.88
2022-10-15T03:07:16.282Z,78.16
2022-10-15T03:09:43.791Z,78.39
2022-10-15T03:12:11.530Z,78.09
2022-10-15T03:14:39.026Z,77.83
2022-10-15T03:17:06.970Z,78.18
2022-10-15T03:19:34.734Z,77.75
2022-10-15T03:22:20.938Z,77.83
2022-10-15T03:24:53.277Z,77.78
2022-10-15T03:27:26.589Z,77.81
2022-10-15T03:30:13.244Z,77.78
2022-10-15T03:35:11.338Z,77.87
2022-10-15T03:37:39.214Z,77.63
2022-10-15T03:40:13.535Z,77.88
2022-10-15T03:42:43.704Z,77.30
2022-10-15T03:45:12.236Z,77.66
2022-10-15T03:47:39.738Z,77.75
2022-10-15T03:50:09.634Z,77.94
2022-10-15T03:52:37.909Z,78.09
2022-10-15T03:55:06.928Z,78.28
2022-10-15T03:57:35.408Z,78.68
2022-10-15T04:00:07.966Z,78.84
2022-10-15T04:02:41.939Z,78.61
2022-10-15T04:05:20.487Z,78.43
2022-10-15T04:07:53.708Z,78.59
2022-10-15T04:10:22.936Z,78.45
2022-10-15T04:12:50.473Z,78.62
2022-10-15T04:15:19.204Z,78.48
2022-10-15T04:17:55.857Z,78.31
2022-10-15T04:20:25.435Z,78.35
2022-10-15T04:22:53.049Z,78.31
2022-10-15T04:25:20.729Z,78.55
2022-10-15T04:27:48.470Z,78.29
2022-10-15T04:30:18.673Z,78.63
2022-10-15T04:32:53.983Z,78.35
2022-10-15T04:35:22.214Z,78.48
2022-10-15T04:38:04.493Z,78.11
2022-10-15T04:41:02.990Z,78.19
2022-10-15T04:43:43.463Z,77.95
2022-10-15T04:46:13.754Z,78.10
2022-10-15T04:48:43.245Z,77.85
2022-10-15T04:51:20.558Z,77.84
2022-10-15T04:54:10.605Z,77.70
2022-10-15T04:56:48.053Z,77.56
2022-10-15T04:59:15.784Z,77.62
2022-10-15T05:02:03.604Z,77.97
2022-10-15T05:04:31.337Z,78.02
2022-10-15T05:06:58.891Z,78.01
2022-10-15T05:09:26.647Z,78.38
2022-10-15T05:11:55.941Z,77.85
2022-10-15T05:14:23.402Z,77.96
2022-10-15T05:17:05.505Z,78.04
2022-10-15T05:19:38.944Z,78.10
2022-10-15T05:22:08.943Z,77.78
2022-10-15T05:24:43.462Z,77.68
2022-10-15T05:27:33.995Z,77.79
2022-10-15T05:30:04.881Z,77.85
2022-10-15T05:32:45.660Z,77.42
2022-10-15T05:35:17.544Z,77.37
2022-10-15T05:37:54.155Z,77.26
2022-10-15T05:40:22.166Z,77.91
2022-10-15T05:43:05.125Z,77.26
2022-10-15T05:45:32.649Z,77.31
2022-10-15T05:48:05.390Z,77.36
2022-10-15T05:50:33.480Z,77.57
2022-10-15T05:53:03.079Z,77.58
2022-10-15T05:55:45.929Z,78.05
2022-10-15T05:58:13.460Z,78.09
2022-10-15T06:00:41.103Z,78.46
2022-10-15T06:03:14.660Z,78.50
2022-10-15T06:05:42.259Z,78.50
2022-10-15T06:08:09.985Z,78.66
2022-10-15T06:10:37.923Z,78.73
2022-10-15T06:13:06.103Z,78.62
2022-10-15T06:15:34.258Z,78.96
2022-10-15T06:18:02.373Z,78.90
2022-10-15T06:20:29.891Z,79.12
2022-10-15T06:23:01.970Z,78.82
2022-10-15T06:25:32.130Z,78.51
2022-10-15T06:28:06.261Z,78.46
2022-10-15T06:30:42.965Z,78.42
2022-10-15T06:35:40.591Z,78.61
2022-10-15T06:38:08.125Z,78.13
2022-10-15T06:40:37.089Z,77.91
2022-10-15T06:43:10.614Z,77.64
2022-10-15T06:45:42.045Z,77.25
2022-10-15T06:48:18.574Z,77.03
2022-10-15T06:50:46.503Z,76.55
2022-10-15T06:53:13.924Z,76.37
2022-10-15T06:55:41.422Z,75.73
2022-10-15T06:58:12.569Z,76.02
2022-10-15T07:00:40.055Z,75.16
2022-10-15T07:03:08.409Z,74.52
2022-10-15T07:05:36.238Z,73.65
2022-10-15T07:08:03.933Z,73.75
2022-10-15T07:10:31.554Z,73.51
2022-10-15T07:13:03.157Z,73.16
2022-10-15T07:15:30.618Z,72.66
2022-10-15T07:18:01.426Z,72.48
2022-10-15T07:20:30.808Z,72.34
2022-10-15T07:23:01.741Z,72.10
2022-10-15T07:25:35.149Z,71.80
2022-10-15T07:28:02.692Z,71.56
2022-10-15T07:30:30.199Z,70.98
2022-10-15T07:32:59.753Z,70.50
2022-10-15T07:35:27.943Z,70.04
2022-10-15T07:37:55.560Z,69.80
2022-10-15T07:40:23.319Z,69.83
2022-10-15T07:42:58.770Z,69.72
2022-10-15T07:45:32.040Z,69.59
2022-10-15T07:47:59.496Z,69.49
2022-10-15T07:50:29.313Z,69.53
2022-10-15T07:53:01.465Z,69.48
2022-10-15T07:55:28.925Z,69.18
2022-10-15T07:57:59.938Z,68.73
2022-10-15T08:00:27.811Z,68.83
2022-10-15T08:02:55.303Z,68.76
2022-10-15T08:05:22.765Z,68.10
2022-10-15T08:07:50.594Z,67.69
2022-10-15T08:10:18.868Z,66.97
2022-10-15T08:12:46.725Z,66.90
2022-10-15T08:15:14.283Z,67.42
2022-10-15T08:17:42.358Z,67.35
2022-10-15T08:20:11.079Z,67.15
2022-10-15T08:22:38.872Z,66.80
2022-10-15T08:25:06.674Z,66.24
2022-10-15T08:27:34.376Z,66.52
2022-10-15T08:30:05.351Z,66.21
2022-10-15T08:32:33.155Z,66.46
2022-10-15T08:35:00.602Z,66.34
2022-10-15T08:37:31.934Z,65.21
2022-10-15T08:39:59.970Z,65.68
2022-10-15T08:42:42.128Z,65.84
2022-10-15T08:45:23.381Z,65.89
2022-10-15T08:48:04.025Z,65.67
2022-10-15T08:50:49.233Z,65.36
2022-10-15T08:53:25.662Z,65.08
2022-10-15T08:56:06.198Z,65.39
2022-10-15T08:59:05.285Z,65.29
2022-10-15T09:02:03.882Z,64.42
2022-10-15T09:04:41.755Z,63.63
2022-10-15T09:07:30.628Z,62.24
2022-10-15T09:10:32.267Z,62.98
2022-10-15T09:13:16.332Z,62.51
2022-10-15T09:16:00.360Z,61.85
2022-10-15T09:18:35.223Z,62.31
2022-10-15T09:21:06.062Z,61.59
2022-10-15T09:23:34.808Z,61.59
2022-10-15T09:26:23.780Z,61.09
2022-10-15T09:29:27.266Z,61.29
2022-10-15T09:32:31.930Z,60.86
2022-10-15T09:35:18.932Z,60.41
2022-10-15T09:38:24.646Z,59.64
2022-10-15T09:41:16.691Z,60.77
2022-10-15T09:43:51.646Z,60.80
2022-10-15T09:46:20.643Z,60.71
2022-10-15T09:49:09.618Z,60.28
2022-10-15T09:51:44.529Z,59.42
2022-10-15T09:54:25.967Z,60.50
2022-10-15T09:56:57.189Z,59.48
2022-10-15T09:59:25.714Z,59.90
2022-10-15T10:02:18.756Z,57.21
2022-10-15T10:04:46.520Z,56.22
2022-10-15T10:07:38.526Z,56.75
2022-10-15T10:10:28.593Z,55.01
2022-10-15T10:12:57.249Z,53.90
2022-10-15T10:15:36.783Z,55.05
2022-10-15T10:18:06.789Z,53.96
2022-10-15T10:20:35.114Z,54.53
2022-10-15T10:23:23.483Z,54.16
2022-10-15T10:25:51.293Z,54.82
2022-10-15T10:28:57.099Z,53.29
2022-10-15T10:31:40.093Z,53.32
2022-10-15T10:34:16.874Z,53.47
2022-10-15T10:36:51.427Z,51.54
2022-10-15T10:39:32.537Z,52.01
2022-10-15T10:42:22.871Z,50.11
2022-10-15T10:44:52.588Z,51.40
2022-10-15T10:47:26.171Z,50.27
2022-10-15T10:50:00.708Z,49.79
2022-10-15T10:52:35.001Z,49.55
2022-10-15T10:55:05.165Z,50.90
2022-10-15T10:57:56.070Z,50.06
2022-10-15T11:00:33.670Z,51.23
2022-10-15T11:03:01.898Z,50.53
2022-10-15T11:05:33.837Z,48.91
2022-10-15T11:08:24.739Z,48.43
2022-10-15T11:11:38.541Z,47.47
2022-10-15T11:14:39.947Z,47.22
2022-10-15T11:17:32.327Z,46.55
2022-10-15T11:20:32.004Z,46.73
2022-10-15T11:23:48.509Z,46.88
2022-10-15T11:26:52.001Z,45.87
2022-10-15T11:30:25.550Z,46.27
2022-10-15T11:33:08.212Z,46.01
2022-10-15T11:36:20.389Z,45.33
2022-10-15T11:39:19.884Z,44.94
2022-10-15T11:42:41.099Z,45.44
2022-10-15T11:45:36.134Z,45.00
2022-10-15T11:48:36.043Z,44.73
2022-10-15T11:51:32.432Z,44.16
2022-10-15T11:54:32.597Z,43.68
2022-10-15T11:57:04.268Z,43.89
2022-10-15T11:59:50.434Z,43.18
2022-10-15T12:02:38.073Z,44.28
2022-10-15T12:05:10.426Z,43.54
2022-10-15T12:07:45.733Z,43.20
2022-10-15T12:10:42.511Z,41.96
2022-10-15T12:13:35.728Z,43.45
2022-10-15T12:16:19.446Z,42.26
2022-10-15T12:19:04.054Z,42.20
2022-10-15T12:21:44.785Z,42.10
2022-10-15T12:24:47.339Z,41.18
2022-10-15T12:27:18.786Z,41.31
2022-10-15T12:29:49.728Z,40.18
2022-10-15T12:32:48.682Z,39.94
2022-10-15T12:35:16.220Z,39.67
2022-10-15T12:37:48.050Z,39.00
2022-10-15T12:40:29.588Z,38.49
2022-10-15T12:42:57.260Z,39.00
2022-10-15T12:46:10.829Z,37.97
2022-10-15T12:48:45.595Z,38.71
2022-10-15T12:51:24.814Z,37.77
2022-10-15T12:53:58.925Z,36.79
2022-10-15T12:56:46.922Z,37.35
2022-10-15T12:59:55.663Z,36.34
2022-10-15T13:02:43.793Z,36.96
2022-10-15T13:05:33.683Z,36.26
2022-10-15T13:08:05.040Z,36.14
2022-10-15T13:10:40.330Z,35.54
2022-10-15T13:13:17.613Z,34.98
2022-10-15T13:16:00.677Z,35.73
2022-10-15T13:18:31.561Z,34.62
2022-10-15T13:23:34.836Z,34.12
2022-10-15T13:26:30.349Z,33.12
2022-10-15T13:28:58.376Z,33.83
2022-10-15T13:31:35.219Z,33.31
2022-10-15T13:34:17.412Z,33.28
2022-10-15T13:36:55.160Z,32.77
2022-10-15T13:39:38.963Z,32.57
2022-10-15T13:42:21.061Z,32.85
2022-10-15T13:45:01.801Z,31.91
2022-10-15T13:47:35.907Z,31.58
2022-10-15T13:50:29.531Z,31.23
2022-10-15T13:53:33.581Z,31.18
2022-10-15T13:56:18.474Z,31.22
2022-10-15T13:58:47.769Z,30.83
2022-10-15T14:01:22.054Z,30.70
2022-10-15T14:04:01.569Z,30.25
2022-10-15T14:06:38.299Z,30.65
2022-10-15T14:09:18.969Z,29.37
2022-10-15T14:11:46.707Z,29.84
2022-10-15T14:14:41.636Z,29.10
2022-10-15T14:17:17.599Z,29.21
2022-10-15T14:20:25.309Z,29.37
2022-10-15T14:22:49.693Z,29.18
2022-10-15T14:25:27.770Z,28.52
2022-10-15T14:27:55.565Z,28.88
2022-10-15T14:30:35.861Z,29.36
2022-10-15T14:33:03.987Z,29.05
2022-10-15T14:35:37.287Z,29.02
2022-10-15T14:38:16.436Z,28.59
2022-10-15T14:41:09.250Z,28.87
2022-10-15T14:43:38.255Z,28.11
2022-10-15T14:46:15.669Z,28.72
2022-10-15T14:48:44.619Z,28.82
2022-10-15T14:51:25.257Z,28.73
2022-10-15T14:53:53.816Z,29.38
2022-10-15T14:56:30.225Z,29.92
2022-10-15T14:58:58.963Z,30.34
2022-10-15T15:01:27.757Z,31.06
2022-10-15T15:03:57.154Z,31.27
2022-10-15T15:06:25.177Z,32.41
2022-10-15T15:08:52.890Z,33.63
2022-10-15T15:11:25.001Z,34.98
2022-10-15T15:13:53.201Z,35.31
2022-10-15T15:16:20.987Z,35.97
2022-10-15T15:18:48.994Z,38.16
2022-10-15T15:21:22.248Z,38.48
2022-10-15T15:23:50.907Z,39.25
2022-10-15T15:26:19.060Z,39.45
2022-10-15T15:28:46.902Z,39.72
2022-10-15T15:31:18.141Z,40.30
2022-10-15T15:33:46.036Z,41.36
2022-10-15T15:36:20.998Z,41.77
2022-10-15T15:38:52.105Z,41.60
2022-10-15T15:41:22.722Z,41.93
2022-10-15T15:43:50.747Z,42.49
2022-10-15T15:46:18.956Z,43.82
2022-10-15T15:48:46.502Z,42.77
2022-10-15T15:51:26.553Z,44.53
2022-10-15T15:53:54.526Z,43.51
2022-10-15T15:56:22.809Z,44.07
2022-10-15T15:58:51.148Z,44.27
2022-10-15T16:01:20.468Z,44.03
2022-10-15T16:03:48.140Z,44.34
2022-10-15T16:06:16.148Z,44.58
2022-10-15T16:08:43.696Z,45.25
2022-10-15T16:11:11.519Z,45.34
2022-10-15T16:13:40.916Z,46.31
2022-10-15T16:16:09.494Z,45.89
2022-10-15T16:18:37.839Z,45.58
2022-10-15T16:21:05.861Z,47.11
2022-10-15T16:23:33.395Z,46.82
2022-10-15T16:26:01.159Z,46.54
2022-10-15T16:28:28.676Z,46.63
2022-10-15T16:31:21.135Z,46.63
2022-10-15T16:33:49.274Z,46.24
2022-10-15T16:36:18.262Z,46.65
2022-10-15T16:38:47.230Z,46.26
2022-10-15T16:41:18.741Z,47.21
2022-10-15T16:43:48.349Z,46.96
2022-10-15T16:46:18.512Z,47.13
2022-10-15T16:48:51.683Z,47.07
2022-10-15T16:51:20.174Z,47.70
2022-10-15T16:53:49.143Z,46.92
2022-10-15T16:56:23.857Z,47.18
2022-10-15T16:58:51.621Z,47.50
2022-10-15T17:01:23.502Z,47.34
2022-10-15T17:03:51.447Z,47.59
2022-10-15T17:06:28.880Z,47.62
2022-10-15T17:09:05.077Z,48.33
2022-10-15T17:11:40.411Z,47.43
2022-10-15T17:14:11.513Z,47.70
2022-10-15T17:16:49.056Z,47.62
2022-10-15T17:19:21.407Z,47.61
2022-10-15T17:21:49.942Z,47.89
2022-10-15T17:24:19.316Z,47.45
2022-10-15T17:26:48.061Z,47.85
2022-10-15T17:29:20.779Z,48.09
2022-10-15T17:31:51.348Z,48.01
2022-10-15T17:34:19.291Z,48.68
2022-10-15T17:36:48.998Z,48.57
2022-10-15T17:39:20.293Z,48.94
2022-10-15T17:41:49.206Z,49.03
2022-10-15T17:44:17.019Z,49.13
2022-10-15T17:46:44.808Z,48.94
2022-10-15T17:49:15.191Z,49.24
2022-10-15T17:51:44.689Z,49.51
2022-10-15T17:54:12.230Z,49.31
2022-10-15T17:56:40.228Z,49.58
2022-10-15T17:59:11.230Z,49.84
2022-10-15T18:01:59.523Z,50.22
2022-10-15T18:04:31.086Z,50.46
2022-10-15T18:06:59.569Z,50.27
2022-10-15T18:09:28.044Z,50.63
2022-10-15T18:11:57.587Z,50.63
2022-10-15T18:14:30.330Z,51.17
2022-10-15T18:16:58.462Z,51.18
2022-10-15T18:19:26.782Z,50.79
2022-10-15T18:21:55.742Z,51.08
2022-10-15T18:24:24.045Z,51.15
2022-10-15T18:26:52.841Z,51.00
2022-10-15T18:29:22.457Z,50.90
2022-10-15T18:31:54.759Z,51.25
2022-10-15T18:34:25.057Z,51.26
2022-10-15T18:36:52.741Z,51.56
2022-10-15T18:39:23.130Z,51.73
2022-10-15T18:41:50.951Z,51.84
2022-10-15T18:44:21.628Z,51.60
2022-10-15T18:46:51.813Z,51.72
2022-10-15T18:49:20.893Z,51.70
2022-10-15T18:51:53.047Z,51.76
2022-10-15T18:54:22.051Z,51.77
2022-10-15T18:56:50.869Z,52.09
2022-10-15T18:59:19.992Z,52.29
2022-10-15T19:01:50.903Z,52.09
2022-10-15T19:04:19.745Z,52.48
2022-10-15T19:06:51.787Z,52.80
2022-10-15T19:09:26.584Z,52.89
2022-10-15T19:11:56.150Z,53.06
2022-10-15T19:14:26.136Z,52.84
2022-10-15T19:16:54.405Z,53.11
2022-10-15T19:19:24.257Z,53.13
2022-10-15T19:21:52.741Z,53.03
2022-10-15T19:24:22.467Z,53.29
2022-10-15T19:26:53.666Z,53.19
2022-10-15T19:29:21.263Z,53.12
2022-10-15T19:31:53.304Z,52.93
2022-10-15T19:34:22.739Z,52.78
2022-10-15T19:36:50.878Z,52.99
2022-10-15T19:39:22.337Z,53.02
2022-10-15T19:41:52.646Z,52.73
2022-10-15T19:44:25.720Z,52.50
2022-10-15T19:46:56.197Z,52.80
2022-10-15T19:49:25.228Z,52.41
2022-10-15T19:51:53.344Z,52.54
2022-10-15T19:54:21.039Z,52.38
2022-10-15T19:56:48.910Z,52.37
2022-10-15T19:59:17.017Z,52.38
2022-10-15T20:01:44.891Z,52.39
2022-10-15T20:04:12.466Z,52.51
2022-10-15T20:06:40.405Z,52.21
2022-10-15T20:09:08.956Z,52.65
2022-10-15T20:11:38.000Z,52.33
2022-10-15T20:14:07.025Z,52.54
2022-10-15T20:16:35.028Z,52.51
2022-10-15T20:19:05.652Z,52.93
2022-10-15T20:21:33.704Z,52.89
2022-10-15T20:24:05.227Z,52.81
2022-10-15T20:26:33.249Z,52.91
2022-10-15T20:29:01.082Z,53.03
2022-10-15T20:31:33.178Z,53.25
2022-10-15T20:34:02.521Z,53.27
2022-10-15T20:36:30.638Z,53.40
2022-10-15T20:39:00.913Z,53.50
2022-10-15T20:41:29.070Z,53.63
2022-10-15T20:43:58.405Z,53.59
2022-10-15T20:46:35.504Z,53.79
2022-10-15T20:51:45.201Z,54.11
2022-10-15T20:54:14.745Z,54.08
2022-10-15T20:56:42.934Z,54.37
2022-10-15T20:59:10.565Z,54.23
2022-10-15T21:01:39.046Z,54.07
2022-10-15T21:04:07.089Z,54.19
2022-10-15T21:06:34.883Z,53.81
2022-10-15T21:09:02.724Z,53.77
2022-10-15T21:11:30.506Z,53.57
2022-10-15T21:14:01.319Z,53.43
2022-10-15T21:16:29.235Z,53.47
2022-10-15T21:18:56.781Z,53.21
2022-10-15T21:21:24.621Z,53.08
2022-10-15T21:23:52.961Z,52.85
2022-10-15T21:26:21.834Z,52.89
2022-10-15T21:28:58.242Z,52.41
2022-10-15T21:31:27.395Z,52.30
2022-10-15T21:33:55.745Z,52.59
2022-10-15T21:36:27.667Z,52.46
2022-10-15T21:38:59.168Z,52.34
2022-10-15T21:41:30.747Z,52.32
2022-10-15T21:43:59.957Z,52.34
2022-10-15T21:46:28.409Z,52.19
2022-10-15T21:48:55.857Z,52.44
2022-10-15T21:51:28.530Z,52.52
2022-10-15T21:53:58.083Z,52.26
2022-10-15T21:56:27.179Z,52.49
2022-10-15T21:58:55.834Z,52.23
2022-10-15T22:01:26.991Z,51.92
2022-10-15T22:04:04.774Z,51.93
2022-10-15T22:06:33.404Z,52.11
2022-10-15T22:09:02.071Z,52.05
2022-10-15T22:11:33.659Z,52.24
2022-10-15T22:14:05.010Z,52.07
2022-10-15T22:16:36.276Z,52.32
2022-10-15T22:19:05.188Z,52.29
2022-10-15T22:21:36.552Z,52.40
2022-10-15T22:24:08.619Z,52.11
2022-10-15T22:26:41.105Z,52.04
2022-10-15T22:29:16.100Z,52.53
2022-10-15T22:31:44.272Z,52.29
2022-10-15T22:34:12.029Z,52.48
2022-10-15T22:36:39.990Z,52.69
2022-10-15T22:39:10.219Z,52.60
2022-10-15T22:41:40.894Z,52.78
2022-10-15T22:44:12.769Z,52.46
2022-10-15T22:46:41.303Z,52.61
2022-10-15T22:49:10.541Z,52.85
2022-10-15T22:51:38.241Z,52.60
2022-10-15T22:54:05.713Z,52.56
2022-10-15T22:56:33.987Z,52.35
2022-10-15T22:59:01.640Z,52.71
2022-10-15T23:01:32.432Z,52.67
2022-10-15T23:04:05.787Z,52.71
2022-10-15T23:06:36.294Z,52.54
2022-10-15T23:09:05.977Z,52.61
2022-10-15T23:11:40.347Z,52.53
2022-10-15T23:14:12.388Z,52.72
2022-10-15T23:16:44.759Z,52.86
2022-10-15T23:19:19.671Z,52.75
2022-10-15T23:21:52.324Z,52.64
2022-10-15T23:24:22.989Z,52.96
2022-10-15T23:26:51.482Z,52.81
2022-10-15T23:29:23.342Z,52.52
2022-10-15T23:31:52.798Z,52.35
2022-10-15T23:34:23.816Z,52.41
2022-10-15T23:36:52.456Z,52.28
2022-10-15T23:39:25.104Z,52.06
2022-10-15T23:41:53.512Z,52.38
2022-10-15T23:44:21.651Z,52.15
2022-10-15T23:46:49.429Z,52.07
2022-10-15T23:49:17.134Z,51.92
2022-10-15T23:51:44.899Z,52.21
2022-10-15T23:54:16.364Z,52.28
2022-10-15T23:56:46.295Z,52.49
2022-10-15T23:59:14.745Z,52.46
